Piso, Kentucky
Current Conditions -  °F | °C
As of 10:15 PM on Monday 20 Oct 2014 (Local Time) from KPBX Reporting Station
Broken Clouds Broken Clouds  
Wind Chill: 53°   Ceiling: 5500
Heat Index: 53°   Visibility: 10mi
Dew Point: 50°   Wind: 3mph
Humidity: 91%   Direction: 210°SSW
Pressure: 29.98"   Gusts: NA
Location:  37.5348°N, 82.513°W
Report Text: KPBX 210215Z AUTO 21003KT 10SM SCT039 SCT047 BKN055 12/10 A2998 RMK AO2 LTG DSNT N T01150100
Loading
Personal Weather Stations






























Interactive Weather Map
Tropical Storm Tracking
New forecast layout! Learn more

10-Day Weather Forecast

Advertisements
Track Severe Weather on mobile